Waterford, MI (48327)

8:03 AM EDT on April 29, 2017 (GMT -0400)
orchard crest north | | Change Station

Elev 965 ft 42.61 °N, 83.40 °W | Updated 21 seconds ago

Overcast
Overcast
43.9 °F
Feels Like 44 °F
N
0.0
Wind Variable Wind from North

Today
High -- | Low -- °F
--% Chance of Precip.
Yesterday
High -- | Low -- °F
Precip. -- in
Pressure 30.12 in
Visibility 10.0 miles
Clouds Few 2000 ft
Mostly Cloudy 6500 ft
Mostly Cloudy 7500 ft
Overcast 20000 ft
Windchill 44 °F
Dew Point 38 °F
Humidity 81%
Rainfall 0.00 in
Snow Depth Not available.
6:30 AM 8:31 PM
Waxing Crescent, 13% visible
METAR KPTK 291153Z 03008KT 10SM FEW020 BKN065 BKN075 OVC200 07/02 A3011 RMK AO2 SLP197 T00670022 10122 20056 53036
Pressure 30.12 in
Visibility 10.0 miles
Clouds Few 2000 ft
Mostly Cloudy 6500 ft
Mostly Cloudy 7500 ft
Overcast 20000 ft
Windchill 44 °F
Dew Point 38 °F
Humidity 81%
Rainfall 0.00 in
Snow Depth Not available.
6:30 AM 8:31 PM
Waxing Crescent, 13% visible
METAR KPTK 291153Z 03008KT 10SM FEW020 BKN065 BKN075 OVC200 07/02 A3011 RMK AO2 SLP197 T00670022 10122 20056 53036

Get Severe Weather Alerts

Thanks for signing up!

Be on the lookout for a verification email in your inbox.

You'll start receiving the daily forecast at 8 AM.

×

10-Day Weather Forecast

Almanac

Astronomy

Apr. 29, 2017 Rise Set
Actual Time
Civil Twilight
Nautical Twilight
Astronomical Twilight
Moon
Length of Visible Light
Length of Day
Tomorrow will be .
, % of the Moon is Illuminated

Today's Extremes

State Highs State Lows

Community

WunderPhotos

WunderBlog® & News

Nearby

Air Quality

  Air Quality AQ Index Pollutant
Not available.

Snow Depth

Station Depth Elevation

Earthquake Activity

City Distance Mag. Time & Date
Minimum magnitude displayed is 2.5.

Coastal Water Temperatures

Place Temperature

Stations

Nearby Weather Stations

Station Location Temp. Windchill Dew Point Humidity Wind Precip. Elev Updated Type
                   

Watches & Warnings

There are currently no watches in effect.